createdAt,value
2022-09-04T00:01:30.711Z,101129.47
2022-09-04T00:04:06.737Z,101134.50
2022-09-04T00:06:41.845Z,101135.34
2022-09-04T00:09:19.985Z,101136.94
2022-09-04T00:11:54.423Z,101137.38
2022-09-04T00:14:34.802Z,101131.19
2022-09-04T00:17:06.084Z,101137.16
2022-09-04T00:19:39.117Z,101130.97
2022-09-04T00:22:17.231Z,101147.03
2022-09-04T00:24:57.930Z,101147.97
2022-09-04T00:27:30.334Z,101141.78
2022-09-04T00:30:07.955Z,101155.38
2022-09-04T00:32:42.903Z,101152.81
2022-09-04T00:35:16.380Z,101152.16
2022-09-04T00:37:49.923Z,101158.94
2022-09-04T00:40:26.927Z,101157.94
2022-09-04T00:43:30.708Z,101153.34
2022-09-04T00:46:09.473Z,101154.41
2022-09-04T00:48:59.731Z,101157.72
2022-09-04T00:51:37.319Z,101165.81
2022-09-04T00:54:36.228Z,101172.50
2022-09-04T00:57:35.397Z,101170.09
2022-09-04T01:00:11.091Z,101176.81
2022-09-04T01:02:58.769Z,101171.84
2022-09-04T01:05:41.195Z,101173.78
2022-09-04T01:08:20.527Z,101170.00
2022-09-04T01:11:01.919Z,101175.81
2022-09-04T01:13:38.193Z,101170.09
2022-09-04T01:16:11.633Z,101182.00
2022-09-04T01:18:48.279Z,101181.16
2022-09-04T01:21:30.962Z,101187.09
2022-09-04T01:24:20.836Z,101184.38
2022-09-04T01:27:00.259Z,101184.44
2022-09-04T01:29:41.087Z,101183.03
2022-09-04T01:32:13.596Z,101189.38
2022-09-04T01:34:51.881Z,101195.75
2022-09-04T01:37:32.783Z,101189.38
2022-09-04T01:40:16.869Z,101189.50
2022-09-04T01:42:52.065Z,101191.63
2022-09-04T01:45:38.258Z,101184.81
2022-09-04T01:48:10.573Z,101193.56
2022-09-04T01:50:40.785Z,101196.69
2022-09-04T01:53:14.113Z,101197.94
2022-09-04T01:55:52.146Z,101198.13
2022-09-04T01:58:35.434Z,101196.84
2022-09-04T02:01:15.543Z,101202.91
2022-09-04T02:03:58.573Z,101202.69
2022-09-04T02:06:34.419Z,101198.81
2022-09-04T02:09:15.568Z,101213.53
2022-09-04T02:11:56.993Z,101205.22
2022-09-04T02:14:37.594Z,101201.53
2022-09-04T02:17:12.626Z,101211.13
2022-09-04T02:20:01.148Z,101208.66
2022-09-04T02:22:37.838Z,101197.16
2022-09-04T02:25:18.328Z,101219.59
2022-09-04T02:27:53.753Z,101213.91
2022-09-04T02:30:23.226Z,101207.94
2022-09-04T02:33:03.302Z,101201.25
2022-09-04T02:35:38.150Z,101210.78
2022-09-04T02:38:15.323Z,101212.47
2022-09-04T02:40:51.391Z,101203.22
2022-09-04T02:43:35.698Z,101204.63
2022-09-04T02:46:10.509Z,101192.72
2022-09-04T02:48:52.279Z,101195.19
2022-09-04T02:51:34.475Z,101186.97
2022-09-04T02:54:08.597Z,101191.38
2022-09-04T02:56:46.310Z,101194.63
2022-09-04T02:59:29.716Z,101193.38
2022-09-04T03:02:01.301Z,101193.38
2022-09-04T03:04:39.363Z,101189.34
2022-09-04T03:07:14.813Z,101175.53
2022-09-04T03:09:47.403Z,101166.34
2022-09-04T03:12:30.630Z,101188.13
2022-09-04T03:15:08.542Z,101185.25
2022-09-04T03:17:48.787Z,101191.91
2022-09-04T03:20:22.381Z,101194.94
2022-09-04T03:22:56.890Z,101201.75
2022-09-04T03:25:49.590Z,101191.16
2022-09-04T03:28:27.265Z,101194.53
2022-09-04T03:30:58.447Z,101196.78
2022-09-04T03:33:34.980Z,101200.44
2022-09-04T03:36:10.536Z,101196.47
2022-09-04T03:38:48.331Z,101203.00
2022-09-04T03:41:30.743Z,101199.16
2022-09-04T03:44:12.151Z,101194.03
2022-09-04T03:46:56.861Z,101193.81
2022-09-04T03:49:44.268Z,101199.47
2022-09-04T03:52:21.451Z,101202.31
2022-09-04T03:55:07.163Z,101210.16
2022-09-04T03:58:13.398Z,101222.56
2022-09-04T04:00:50.921Z,101226.53
2022-09-04T04:03:35.777Z,101216.31
2022-09-04T04:06:19.910Z,101225.00
2022-09-04T04:09:11.962Z,101218.06
2022-09-04T04:11:55.735Z,101223.63
2022-09-04T04:14:38.446Z,101218.00
2022-09-04T04:17:24.680Z,101223.44
2022-09-04T04:20:08.749Z,101218.41
2022-09-04T04:23:17.372Z,101222.69
2022-09-04T04:26:00.026Z,101213.91
2022-09-04T04:29:02.858Z,101218.09
2022-09-04T04:31:44.732Z,101207.84
2022-09-04T04:34:23.731Z,101206.06
2022-09-04T04:36:57.796Z,101219.44
2022-09-04T04:39:37.219Z,101217.31
2022-09-04T04:42:21.124Z,101215.72
2022-09-04T04:45:29.450Z,101206.28
2022-09-04T04:48:30.426Z,101214.75
2022-09-04T04:51:09.974Z,101224.97
2022-09-04T04:53:47.722Z,101220.34
2022-09-04T04:56:24.417Z,101227.13
2022-09-04T04:59:03.091Z,101230.16
2022-09-04T05:01:50.944Z,101238.53
2022-09-04T05:04:27.581Z,101245.97
2022-09-04T05:07:01.161Z,101253.88
2022-09-04T05:09:38.858Z,101254.31
2022-09-04T05:12:17.811Z,101260.41
2022-09-04T05:14:52.038Z,101257.09
2022-09-04T05:17:32.741Z,101270.22
2022-09-04T05:20:21.677Z,101266.13
2022-09-04T05:23:01.040Z,101270.09
2022-09-04T05:25:40.184Z,101274.50
2022-09-04T05:28:22.608Z,101278.31
2022-09-04T05:30:57.304Z,101280.00
2022-09-04T05:33:34.996Z,101283.22
2022-09-04T05:36:11.214Z,101283.97
2022-09-04T05:38:48.106Z,101294.34
2022-09-04T05:41:30.220Z,101300.09
2022-09-04T05:44:12.274Z,101295.66
2022-09-04T05:46:52.355Z,101299.22
2022-09-04T05:49:37.789Z,101301.81
2022-09-04T05:52:20.220Z,101310.72
2022-09-04T05:55:17.149Z,101308.38
2022-09-04T05:57:58.561Z,101311.56
2022-09-04T06:00:32.736Z,101313.78
2022-09-04T06:03:30.801Z,101326.19
2022-09-04T06:06:08.565Z,101317.78
2022-09-04T06:09:03.318Z,101333.38
2022-09-04T06:11:42.170Z,101317.75
2022-09-04T06:14:30.491Z,101329.22
2022-09-04T06:17:17.595Z,101345.13
2022-09-04T06:20:08.894Z,101335.56
2022-09-04T06:22:55.051Z,101332.22
2022-09-04T06:26:00.414Z,101339.25
2022-09-04T06:28:46.720Z,101338.31
2022-09-04T06:31:40.759Z,101328.13
2022-09-04T06:34:22.280Z,101337.22
2022-09-04T06:37:08.371Z,101341.16
2022-09-04T06:39:52.070Z,101335.28
2022-09-04T06:42:32.802Z,101342.22
2022-09-04T06:45:19.613Z,101333.22
2022-09-04T06:48:01.531Z,101343.53
2022-09-04T06:50:41.622Z,101342.94
2022-09-04T06:53:21.443Z,101351.59
2022-09-04T06:56:01.530Z,101347.84
2022-09-04T06:58:50.681Z,101340.94
2022-09-04T07:01:30.403Z,101336.63
2022-09-04T07:04:11.063Z,101356.94
2022-09-04T07:06:54.753Z,101352.22
2022-09-04T07:09:29.718Z,101355.44
2022-09-04T07:12:22.129Z,101355.47
2022-09-04T07:15:31.491Z,101356.72
2022-09-04T07:18:12.261Z,101349.03
2022-09-04T07:20:50.713Z,101340.81
2022-09-04T07:23:25.700Z,101352.91
2022-09-04T07:26:03.946Z,101330.25
2022-09-04T07:28:47.369Z,101330.59
2022-09-04T07:31:20.890Z,101334.50
2022-09-04T07:33:57.549Z,101341.88
2022-09-04T07:36:33.028Z,101344.41
2022-09-04T07:39:10.739Z,101341.59
2022-09-04T07:41:45.823Z,101334.91
2022-09-04T07:44:21.014Z,101332.22
2022-09-04T07:46:57.771Z,101335.84
2022-09-04T07:49:36.290Z,101331.13
2022-09-04T07:52:12.107Z,101330.06
2022-09-04T07:54:58.768Z,101326.16
2022-09-04T07:58:04.006Z,101323.69
2022-09-04T08:00:42.594Z,101311.31
2022-09-04T08:03:53.673Z,101319.03
2022-09-04T08:06:31.406Z,101313.84
2022-09-04T08:09:22.379Z,101316.13
2022-09-04T08:12:32.134Z,101324.78
2022-09-04T08:15:15.489Z,101326.72
2022-09-04T08:17:59.657Z,101327.00
2022-09-04T08:20:40.126Z,101329.50
2022-09-04T08:23:23.501Z,101337.34
2022-09-04T08:25:59.029Z,101331.84
2022-09-04T08:28:46.435Z,101327.81
2022-09-04T08:31:24.479Z,101333.38
2022-09-04T08:34:29.255Z,101318.91
2022-09-04T08:37:05.816Z,101321.94
2022-09-04T08:39:45.794Z,101333.38
2022-09-04T08:42:48.131Z,101316.44
2022-09-04T08:45:46.886Z,101329.75
2022-09-04T08:48:54.624Z,101328.53
2022-09-04T08:51:57.278Z,101337.72
2022-09-04T08:55:16.562Z,101343.69
2022-09-04T08:58:17.556Z,101338.53
2022-09-04T09:01:08.351Z,101342.25
2022-09-04T09:04:06.101Z,101345.66
2022-09-04T09:07:13.745Z,101333.94
2022-09-04T09:10:15.221Z,101344.41
2022-09-04T09:13:07.820Z,101339.66
2022-09-04T09:16:10.094Z,101348.25
2022-09-04T09:18:40.675Z,101342.97
2022-09-04T09:21:11.611Z,101341.97
2022-09-04T09:23:52.634Z,101350.34
2022-09-04T09:26:29.545Z,101346.75
2022-09-04T09:29:29.205Z,101336.56
2022-09-04T09:32:31.496Z,101342.97
2022-09-04T09:35:37.178Z,101347.91
2022-09-04T09:38:35.760Z,101345.47
2022-09-04T09:41:39.350Z,101365.94
2022-09-04T09:44:50.148Z,101362.13
2022-09-04T09:47:53.759Z,101362.56
2022-09-04T09:50:46.698Z,101375.03
2022-09-04T09:54:00.161Z,101360.59
2022-09-04T09:57:03.121Z,101356.34
2022-09-04T10:00:07.255Z,101345.09
2022-09-04T10:03:07.995Z,101345.09
2022-09-04T10:06:13.022Z,101344.41
2022-09-04T10:09:29.174Z,101350.38
2022-09-04T10:12:35.277Z,101344.34
2022-09-04T10:15:37.743Z,101336.69
2022-09-04T10:18:45.865Z,101343.31
2022-09-04T10:21:46.931Z,101333.88
2022-09-04T10:24:50.230Z,101342.25
2022-09-04T10:27:49.865Z,101343.47
2022-09-04T10:30:21.619Z,101325.09
2022-09-04T10:33:18.592Z,101346.63
2022-09-04T10:36:12.203Z,101339.84
2022-09-04T10:39:03.591Z,101353.59
2022-09-04T10:41:49.225Z,101357.34
2022-09-04T10:44:46.217Z,101355.03
2022-09-04T10:47:28.139Z,101347.00
2022-09-04T10:50:17.693Z,101351.63
2022-09-04T10:53:15.838Z,101349.38
2022-09-04T10:56:03.474Z,101321.66
2022-09-04T10:58:56.823Z,101342.88
2022-09-04T11:02:03.163Z,101348.63
2022-09-04T11:05:07.136Z,101343.06
2022-09-04T11:07:57.070Z,101349.78
2022-09-04T11:10:39.677Z,101346.03
2022-09-04T11:13:42.968Z,101338.91
2022-09-04T11:16:40.242Z,101335.69
2022-09-04T11:19:52.026Z,101338.81
2022-09-04T11:22:56.445Z,101334.44
2022-09-04T11:25:47.891Z,101331.31
2022-09-04T11:28:36.194Z,101332.88
2022-09-04T11:31:26.119Z,101335.53
2022-09-04T11:34:40.560Z,101329.84
2022-09-04T11:37:49.715Z,101313.91
2022-09-04T11:40:47.386Z,101306.00
2022-09-04T11:43:41.115Z,101315.09
2022-09-04T11:46:32.229Z,101288.66
2022-09-04T11:49:31.490Z,101294.78
2022-09-04T11:52:09.458Z,101290.69
2022-09-04T11:55:10.307Z,101294.69
2022-09-04T11:57:54.511Z,101295.50
2022-09-04T12:00:24.029Z,101296.97
2022-09-04T12:03:18.681Z,101293.78
2022-09-04T12:06:05.326Z,101293.47
2022-09-04T12:09:08.736Z,101294.31
2022-09-04T12:12:11.628Z,101294.16
2022-09-04T12:14:56.368Z,101282.50
2022-09-04T12:17:50.214Z,101275.91
2022-09-04T12:20:45.434Z,101277.53
2022-09-04T12:23:33.959Z,101288.53
2022-09-04T12:26:23.134Z,101282.06
2022-09-04T12:29:24.878Z,101287.56
2022-09-04T12:32:39.610Z,101305.97
2022-09-04T12:35:21.381Z,101298.75
2022-09-04T12:38:33.903Z,101297.53
2022-09-04T12:41:10.647Z,101304.38
2022-09-04T12:43:53.737Z,101306.00
2022-09-04T12:46:41.777Z,101295.00
2022-09-04T12:49:31.054Z,101284.41
2022-09-04T12:52:19.263Z,101281.00
2022-09-04T12:55:01.487Z,101273.22
2022-09-04T12:57:40.954Z,101278.97
2022-09-04T13:00:10.952Z,101270.19
2022-09-04T13:02:50.339Z,101249.78
2022-09-04T13:05:53.062Z,101286.50
2022-09-04T13:08:37.281Z,101286.66
2022-09-04T13:11:18.865Z,101294.13
2022-09-04T13:13:55.688Z,101286.91
2022-09-04T13:16:29.679Z,101282.59
2022-09-04T13:19:08.951Z,101282.06
2022-09-04T13:21:57.686Z,101282.75
2022-09-04T13:24:44.580Z,101270.19
2022-09-04T13:27:34.308Z,101264.91
2022-09-04T13:30:08.013Z,101249.53
2022-09-04T13:33:02.390Z,101270.09
2022-09-04T13:35:44.897Z,101268.81
2022-09-04T13:38:37.353Z,101290.22
2022-09-04T13:41:25.042Z,101284.78
2022-09-04T13:44:31.835Z,101272.38
2022-09-04T13:47:08.203Z,101290.81
2022-09-04T13:49:41.477Z,101294.66
2022-09-04T13:52:16.540Z,101302.00
2022-09-04T13:54:48.487Z,101292.00
2022-09-04T13:57:21.145Z,101287.69
2022-09-04T13:59:50.893Z,101286.16
2022-09-04T14:02:25.514Z,101277.00
2022-09-04T14:04:57.430Z,101283.81
2022-09-04T14:07:29.462Z,101284.50
2022-09-04T14:10:05.078Z,101289.78
2022-09-04T14:12:54.101Z,101294.50
2022-09-04T14:15:46.985Z,101297.66
2022-09-04T14:18:36.537Z,101296.38
2022-09-04T14:21:20.263Z,101288.72
2022-09-04T14:23:55.514Z,101298.84
2022-09-04T14:26:35.865Z,101301.41
2022-09-04T14:29:15.741Z,101312.00
2022-09-04T14:31:56.579Z,101303.66
2022-09-04T14:34:38.888Z,101303.00
2022-09-04T14:37:19.915Z,101292.41
2022-09-04T14:39:50.297Z,101297.19
2022-09-04T14:42:42.684Z,101298.78
2022-09-04T14:45:30.119Z,101260.16
2022-09-04T14:48:03.731Z,101283.34
2022-09-04T14:50:34.249Z,101283.97
2022-09-04T14:53:05.807Z,101284.50
2022-09-04T14:55:35.991Z,101289.25
2022-09-04T14:58:13.754Z,101287.28
2022-09-04T15:00:59.624Z,101296.28
2022-09-04T15:03:33.050Z,101295.06
2022-09-04T15:06:09.070Z,101290.91
2022-09-04T15:08:42.281Z,101290.41
2022-09-04T15:11:13.305Z,101301.19
2022-09-04T15:13:53.766Z,101294.31
2022-09-04T15:16:43.214Z,101286.00
2022-09-04T15:19:26.549Z,101284.13
2022-09-04T15:22:01.298Z,101292.13
2022-09-04T15:24:35.903Z,101291.91
2022-09-04T15:27:13.699Z,101292.72
2022-09-04T15:30:00.365Z,101287.19
2022-09-04T15:32:31.949Z,101282.50
2022-09-04T15:35:18.289Z,101290.72
2022-09-04T15:37:49.547Z,101290.03
2022-09-04T15:40:29.106Z,101289.81
2022-09-04T15:43:05.338Z,101259.38
2022-09-04T15:45:43.180Z,101294.50
2022-09-04T15:48:23.674Z,101297.75
2022-09-04T15:50:59.639Z,101292.38
2022-09-04T15:53:31.289Z,101292.38
2022-09-04T15:56:10.454Z,101292.72
2022-09-04T15:58:49.357Z,101288.72
2022-09-04T16:01:26.108Z,101283.41
2022-09-04T16:04:05.406Z,101288.75
2022-09-04T16:06:43.290Z,101278.97
2022-09-04T16:09:21.670Z,101271.19
2022-09-04T16:11:59.831Z,101270.66
2022-09-04T16:14:32.213Z,101274.72
2022-09-04T16:17:07.383Z,101268.88
2022-09-04T16:19:41.833Z,101276.78
2022-09-04T16:22:23.336Z,101265.53
2022-09-04T16:24:56.229Z,101260.56
2022-09-04T16:27:27.136Z,101278.47
2022-09-04T16:29:59.438Z,101289.03
2022-09-04T16:32:32.258Z,101272.50
2022-09-04T16:35:04.958Z,101279.59
2022-09-04T16:37:40.127Z,101285.16
2022-09-04T16:40:24.269Z,101283.78
2022-09-04T16:43:00.113Z,101286.00
2022-09-04T16:45:32.405Z,101284.78
2022-09-04T16:48:25.100Z,101293.69
2022-09-04T16:51:23.519Z,101302.56
2022-09-04T16:53:58.991Z,101305.88
2022-09-04T16:56:36.911Z,101304.47
2022-09-04T16:59:17.535Z,101302.94
2022-09-04T17:01:50.564Z,101308.66
2022-09-04T17:04:39.804Z,101299.47
2022-09-04T17:07:16.842Z,101308.22
2022-09-04T17:09:55.960Z,101308.34
2022-09-04T17:12:33.938Z,101302.53
2022-09-04T17:15:12.862Z,101309.72
2022-09-04T17:17:43.155Z,101319.44
2022-09-04T17:20:21.955Z,101321.91
2022-09-04T17:28:59.807Z,101328.44
2022-09-04T17:29:07.925Z,101330.66
2022-09-04T17:29:19.056Z,101314.25
2022-09-04T17:31:45.885Z,101319.66
2022-09-04T17:40:33.905Z,101331.88
2022-09-04T17:40:39.450Z,101323.69
2022-09-04T17:40:55.964Z,101338.63
2022-09-04T17:43:23.381Z,101324.50
2022-09-04T17:46:05.669Z,101329.72
2022-09-04T17:48:40.689Z,101341.56
2022-09-04T17:51:09.699Z,101335.03
2022-09-04T17:53:46.985Z,101342.94
2022-09-04T17:56:22.685Z,101354.03
2022-09-04T17:58:56.903Z,101352.22
2022-09-04T18:01:28.640Z,101359.06
2022-09-04T18:04:26.343Z,101355.97
2022-09-04T18:07:29.942Z,101360.28
2022-09-04T18:10:04.094Z,101362.63
2022-09-04T18:12:38.930Z,101362.97
2022-09-04T18:15:33.737Z,101366.25
2022-09-04T18:18:13.247Z,101373.22
2022-09-04T18:20:51.572Z,101380.97
2022-09-04T18:23:51.398Z,101378.81
2022-09-04T18:26:40.137Z,101352.84
2022-09-04T18:33:28.387Z,101375.81
2022-09-04T18:37:09.010Z,101386.19
2022-09-04T18:37:21.502Z,101384.81
2022-09-04T18:38:19.756Z,101389.78
2022-09-04T18:43:00.635Z,101393.41
2022-09-04T18:50:40.540Z,101387.31
2022-09-04T18:50:44.116Z,101401.88
2022-09-04T18:50:48.965Z,101400.66
2022-09-04T18:52:19.557Z,101402.50
2022-09-04T18:54:51.206Z,101400.41
2022-09-04T18:57:28.382Z,101411.16
2022-09-04T19:00:08.463Z,101411.25
2022-09-04T19:02:52.882Z,101408.63
2022-09-04T19:05:24.619Z,101416.41
2022-09-04T19:07:57.971Z,101408.69
2022-09-04T19:10:29.306Z,101406.06
2022-09-04T19:13:02.824Z,101405.69
2022-09-04T19:15:43.890Z,101404.97
2022-09-04T19:18:24.670Z,101407.38
2022-09-04T19:21:05.146Z,101409.50
2022-09-04T19:23:41.367Z,101410.78
2022-09-04T19:26:19.378Z,101410.69
2022-09-04T19:28:52.345Z,101395.44
2022-09-04T19:31:32.200Z,101403.06
2022-09-04T19:34:10.331Z,101400.88
2022-09-04T19:36:44.918Z,101392.00
2022-09-04T19:44:25.565Z,101402.00
2022-09-04T19:46:03.054Z,101401.53
2022-09-04T19:46:17.179Z,101405.50
2022-09-04T19:48:25.376Z,101408.75
2022-09-04T19:53:33.087Z,101413.78
2022-09-04T19:53:57.595Z,101415.09
2022-09-04T19:56:31.666Z,101415.69
2022-09-04T19:59:06.717Z,101398.22
2022-09-04T20:01:46.475Z,101409.81
2022-09-04T20:04:26.271Z,101405.38
2022-09-04T20:06:59.624Z,101413.16
2022-09-04T20:09:34.089Z,101408.28
2022-09-04T20:12:11.096Z,101418.31
2022-09-04T20:14:45.363Z,101412.13
2022-09-04T20:17:29.948Z,101422.41
2022-09-04T20:20:03.605Z,101415.34
2022-09-04T20:22:36.267Z,101404.34
2022-09-04T20:25:36.751Z,101403.06
2022-09-04T20:28:17.334Z,101407.00
2022-09-04T20:31:00.952Z,101414.31
2022-09-04T20:33:31.480Z,101417.63
2022-09-04T20:36:05.995Z,101407.84
2022-09-04T20:38:45.814Z,101413.34
2022-09-04T20:41:21.730Z,101407.00
2022-09-04T20:44:00.281Z,101394.69
2022-09-04T20:51:51.199Z,101408.47
2022-09-04T20:52:55.656Z,101406.66
2022-09-04T20:53:08.703Z,101411.41
2022-09-04T20:55:46.814Z,101408.81
2022-09-04T21:03:11.045Z,101416.44
2022-09-04T21:03:19.367Z,101408.50
2022-09-04T21:04:42.514Z,101416.63
2022-09-04T21:07:23.204Z,101408.28
2022-09-04T21:10:00.770Z,101421.09
2022-09-04T21:12:37.211Z,101422.16
2022-09-04T21:15:14.325Z,101390.25
2022-09-04T21:18:03.685Z,101400.75
2022-09-04T21:21:00.108Z,101415.22
2022-09-04T21:24:03.448Z,101413.78
2022-09-04T21:27:01.334Z,101417.59
2022-09-04T21:29:53.131Z,101416.00
2022-09-04T21:32:41.660Z,101409.19
2022-09-04T21:35:17.537Z,101410.63
2022-09-04T21:37:52.161Z,101413.34
2022-09-04T21:40:52.957Z,101411.31
2022-09-04T21:44:00.320Z,101408.19
2022-09-04T21:46:46.766Z,101402.56
2022-09-04T21:49:31.229Z,101395.03
2022-09-04T21:52:26.339Z,101402.16
2022-09-04T21:57:08.937Z,101396.66
2022-09-04T22:02:30.373Z,101390.78
2022-09-04T22:02:46.085Z,101394.31
2022-09-04T22:04:42.777Z,101405.66
2022-09-04T22:08:56.101Z,101395.47
2022-09-04T22:13:35.445Z,101399.38
2022-09-04T22:13:48.380Z,101405.91
2022-09-04T22:16:29.525Z,101402.16
2022-09-04T22:19:38.285Z,101409.75
2022-09-04T22:22:36.383Z,101382.34
2022-09-04T22:25:20.642Z,101402.56
2022-09-04T22:28:07.842Z,101406.72
2022-09-04T22:30:50.588Z,101407.44
2022-09-04T22:34:15.779Z,101403.88
2022-09-04T22:37:02.499Z,101406.22
2022-09-04T22:39:58.705Z,101398.06
2022-09-04T22:42:45.904Z,101395.84
2022-09-04T22:45:45.879Z,101398.06
2022-09-04T22:48:30.621Z,101396.69
2022-09-04T22:51:14.996Z,101396.97
2022-09-04T22:54:02.855Z,101385.53
2022-09-04T22:56:49.107Z,101386.69
2022-09-04T22:59:40.026Z,101404.72
2022-09-04T23:03:06.730Z,101398.63
2022-09-04T23:06:24.837Z,101401.38
2022-09-04T23:13:48.667Z,101393.84
2022-09-04T23:13:59.759Z,101394.16
2022-09-04T23:15:37.218Z,101401.63
2022-09-04T23:20:50.200Z,101401.84
2022-09-04T23:26:41.491Z,101392.97
2022-09-04T23:26:43.385Z,101393.38
2022-09-04T23:27:32.436Z,101396.13
2022-09-04T23:30:23.097Z,101387.19
2022-09-04T23:33:33.241Z,101370.25
2022-09-04T23:36:33.506Z,101390.34
2022-09-04T23:39:49.014Z,101367.94
2022-09-04T23:42:40.182Z,101391.13
2022-09-04T23:45:22.860Z,101397.94
2022-09-04T23:48:19.257Z,101394.91
2022-09-04T23:50:55.110Z,101394.53
2022-09-04T23:53:36.261Z,101399.59
2022-09-04T23:56:15.931Z,101395.19
2022-09-04T23:59:26.454Z,101394.53
